Hauptseite
METAR-TAF:

METAR-TAF

Flughäfen :

Flughafen Jakutsk

Jakutsk, Russland

Breite: 62-01N, Länge: 129-43E, Höhe: 103 m

Beobachtung

Neuester Wetterbericht von vor 1 Stunde und 56 Minuten, um 01:30 UTC
Wind 10 kt aus Südwest
Temperatur 22°C
Luftfeuchtigkeit 27%
Luftdruck 1009 hPa
Sichtweite 10 km oder mehr
keine Wolken unter 1500 m und keine Kumulonimbus oder Gewitterwolken

METAR: UEEE 250130Z 22005MPS CAVOK 22/02 Q1009 R23L/09//60 NOSIG RMK QFE748

Zeit: 12:26 (03:26 UTC)

Prognose

Neuester Wetterbericht von vor 4 Stunden und 26 Minuten, um 23:00 UTC
Gültige Prognose vom 25 um 00 UTC bis 26 um 06 UTC
Wind 6 kt aus Süd/Südwest, Böen bis zu 16 kt
Sichtweite 10 km oder mehr
keine Wolken unter 1500 m und keine Kumulonimbus oder Gewitterwolken

TAF: UEEE 242300Z 2500/2606 20003G08MPS CAVOK

Wetterbeobachtungen und Prognosen von mehr als 4000 Flughäfen (METAR und TAF Bericht).

Die verfügbaren Stationen werden durch gelbe und rote Markierungen auf der Karte dargestellt.

Führen Sie die Maus auf sie, um den Namen der Station zu sehen.

Darauf klicken, um die Beobachtung von Wetterbeobachtungen und Prognosen zu sehen.

Um die Karte zu ändern : klicken Sie auf den grünen Tasten mit einem schwarzen Kreuz Zum Vergrößern, auf den grünen Button mit einem Gedankenstrich zu verkleinern, oder auf die grünen Pfeile für benachbarte Karten.


METAR-TAF: